Time;durP1;ratioP1;P1;durP2;ratioP2;P2;SDS_P1;SDS_P2;PMS_P1;PMS_P2;Temp;Humidity;BMP_temperature;BMP_pressure;BME280_temperature;BME280_humidity;BME280_pressure;Samples;Min_cycle;Max_cycle;Signal;HPM_P1;HPM_P2
2021/04/29 00:01:36;;;;;;;6.97;3.72;;;;;15.10;99992.00;;;;5075606;28;20202;-78
2021/04/29 00:04:03;;;;;;;4.70;3.28;;;;;15.10;99996.00;;;;5071939;28;20199;-78
2021/04/29 00:06:30;;;;;;;7.05;4.03;;;;;15.10;99996.00;;;;5069807;28;20224;-78
2021/04/29 00:08:57;;;;;;;5.57;3.55;;;;;15.10;99996.00;;;;5070029;28;20194;-79
2021/04/29 00:11:24;;;;;;;4.65;3.50;;;;;15.10;100003.00;;;;5070229;28;20199;-78
2021/04/29 00:13:51;;;;;;;7.30;4.07;;;;;15.10;99998.00;;;;5070718;28;20225;-78
2021/04/29 00:16:18;;;;;;;4.22;3.45;;;;;15.20;100004.00;;;;5070466;28;20253;-78
2021/04/29 00:18:45;;;;;;;5.97;3.92;;;;;15.20;100003.00;;;;5069953;28;20195;-78
2021/04/29 00:21:12;;;;;;;6.18;3.97;;;;;15.20;100001.00;;;;5069832;28;20205;-77
2021/04/29 00:23:39;;;;;;;5.68;3.55;;;;;15.20;100010.00;;;;5069803;28;20199;-78
2021/04/29 00:26:06;;;;;;;6.18;4.05;;;;;15.20;100011.00;;;;5069595;28;20222;-78
2021/04/29 00:28:32;;;;;;;6.57;4.38;;;;;15.20;100014.00;;;;5071033;28;20698;-78
2021/04/29 00:31:00;;;;;;;6.45;4.28;;;;;15.20;100010.00;;;;5070018;28;20207;-78
2021/04/29 00:33:27;;;;;;;6.63;4.45;;;;;15.20;100021.00;;;;5077742;28;20578;-77
2021/04/29 00:35:54;;;;;;;5.95;4.38;;;;;15.30;100027.00;;;;5089274;28;20584;-77
2021/04/29 00:38:21;;;;;;;5.72;3.22;;;;;15.30;100034.00;;;;5091063;28;20668;-77
2021/04/29 00:40:48;;;;;;;12.23;4.18;;;;;15.30;100032.00;;;;5083542;28;20198;-78
2021/04/29 00:43:14;;;;;;;5.35;3.70;;;;;15.30;100036.00;;;;5070220;28;20577;-78
2021/04/29 00:45:41;;;;;;;5.13;3.75;;;;;15.30;100041.00;;;;5070428;28;20223;-78
2021/04/29 00:48:09;;;;;;;5.47;3.80;;;;;15.40;100027.00;;;;5079980;28;20637;-77
2021/04/29 00:50:36;;;;;;;6.60;4.18;;;;;15.40;100025.00;;;;5086607;28;20203;-78
2021/04/29 00:53:04;;;;;;;6.85;4.43;;;;;15.40;100025.00;;;;5070174;28;20239;-78
2021/04/29 00:55:30;;;;;;;8.73;4.15;;;;;15.40;100021.00;;;;5069647;28;20210;-78
2021/04/29 00:57:57;;;;;;;5.97;3.80;;;;;15.40;99997.00;;;;5070135;28;20199;-79
2021/04/29 01:03:54;;;;;;;5.32;3.67;;;;;15.30;99989.00;;;;5079183;28;20687;-78
2021/04/29 01:06:36;;;;;;;3.85;3.08;;;;;15.30;99988.00;;;;5069700;28;20700;-78
2021/04/29 01:09:07;;;;;;;7.32;4.00;;;;;15.30;99989.00;;;;5069417;28;20664;-78
2021/04/29 01:11:35;;;;;;;4.68;3.42;;;;;15.30;99994.00;;;;5070219;28;20203;-79
2021/04/29 01:14:04;;;;;;;5.13;4.07;;;;;15.20;99990.00;;;;5069327;28;20209;-78
2021/04/29 01:16:32;;;;;;;4.85;3.95;;;;;15.20;99987.00;;;;5069195;28;20565;-78
2021/04/29 01:19:01;;;;;;;5.88;3.70;;;;;15.20;99993.00;;;;5077389;28;21081;-78
2021/04/29 01:21:29;;;;;;;8.02;4.57;;;;;15.20;99994.00;;;;5088241;28;20199;-78
2021/04/29 01:24:01;;;;;;;5.30;4.25;;;;;15.20;99992.00;;;;5089806;28;20197;-78
2021/04/29 01:26:47;;;;;;;5.63;4.38;;;;;15.10;99996.00;;;;5086015;28;20198;-78
2021/04/29 01:29:16;;;;;;;5.97;3.83;;;;;15.10;99991.00;;;;5068288;28;20206;-78
2021/04/29 01:31:45;;;;;;;4.90;3.47;;;;;15.10;99983.00;;;;5081139;28;20737;-78
2021/04/29 01:34:14;;;;;;;6.45;3.65;;;;;15.10;99993.00;;;;5073498;28;20207;-78
2021/04/29 01:36:41;;;;;;;5.90;4.28;;;;;15.10;99989.00;;;;5069525;28;20199;-79
2021/04/29 01:39:10;;;;;;;4.72;3.60;;;;;15.10;99999.00;;;;5079254;28;20198;-79
2021/04/29 01:41:40;;;;;;;6.22;4.25;;;;;15.00;100004.00;;;;5068722;28;20187;-79
2021/04/29 01:44:07;;;;;;;5.00;3.97;;;;;15.00;99994.00;;;;5068128;28;20350;-79
2021/04/29 01:46:35;;;;;;;5.10;3.80;;;;;15.00;99990.00;;;;5081311;28;20198;-79
2021/04/29 01:49:02;;;;;;;6.38;4.43;;;;;15.00;100006.00;;;;5084974;28;20208;-78
2021/04/29 01:51:30;;;;;;;7.43;3.95;;;;;15.00;100002.00;;;;5087186;28;20648;-79
2021/04/29 01:53:57;;;;;;;7.35;3.80;;;;;15.00;99993.00;;;;5088962;28;20703;-79
2021/04/29 01:56:25;;;;;;;5.80;4.50;;;;;15.00;99997.00;;;;5086137;28;20198;-79
2021/04/29 01:58:52;;;;;;;5.50;4.07;;;;;14.90;99994.00;;;;5068322;28;20244;-79
2021/04/29 02:01:19;;;;;;;4.10;3.70;;;;;14.90;100000.00;;;;5068821;28;20234;-78
2021/04/29 02:03:46;;;;;;;4.95;3.88;;;;;14.90;99984.00;;;;5072866;28;20190;-78
2021/04/29 02:06:13;;;;;;;5.97;4.13;;;;;14.90;99989.00;;;;5083972;28;20277;-78
2021/04/29 02:08:40;;;;;;;5.53;4.15;;;;;14.90;99995.00;;;;5088969;28;20214;-78
2021/04/29 02:11:10;;;;;;;5.68;4.20;;;;;14.90;99979.00;;;;5072798;28;20276;-78
2021/04/29 02:13:37;;;;;;;7.50;4.32;;;;;14.90;99983.00;;;;5068655;28;20507;-78
2021/04/29 02:16:10;;;;;;;6.97;4.40;;;;;14.90;99983.00;;;;5068708;28;20199;-78
2021/04/29 02:18:39;;;;;;;5.20;3.97;;;;;14.90;99984.00;;;;5077521;28;20202;-78
2021/04/29 02:21:06;;;;;;;6.45;4.38;;;;;14.90;99980.00;;;;5073259;28;20203;-78
2021/04/29 02:23:33;;;;;;;5.22;4.28;;;;;14.90;99981.00;;;;5068891;28;20207;-79
2021/04/29 02:26:01;;;;;;;6.25;4.80;;;;;14.80;99983.00;;;;5068418;28;20223;-78
2021/04/29 02:28:30;;;;;;;7.15;4.97;;;;;14.80;99982.00;;;;5068072;28;20605;-78
2021/04/29 02:30:57;;;;;;;5.07;4.07;;;;;14.80;99981.00;;;;5071980;28;20615;-77
2021/04/29 02:33:25;;;;;;;7.43;5.30;;;;;14.80;99986.00;;;;5080181;28;20203;-79
2021/04/29 02:35:52;;;;;;;6.53;4.43;;;;;14.80;99979.00;;;;5068727;28;20248;-79
2021/04/29 02:38:19;;;;;;;6.28;4.68;;;;;14.90;99979.00;;;;5068063;28;20202;-78
2021/04/29 02:40:46;;;;;;;6.22;4.43;;;;;14.90;99989.00;;;;5067785;28;20213;-78
2021/04/29 02:43:15;;;;;;;6.65;4.70;;;;;14.90;99982.00;;;;5067740;28;20546;-77
2021/04/29 02:45:43;;;;;;;9.80;5.20;;;;;14.90;99999.00;;;;5068865;28;20234;-78
2021/04/29 02:48:11;;;;;;;5.32;4.18;;;;;14.90;100010.00;;;;5073874;28;20202;-78
2021/04/29 02:50:43;;;;;;;9.02;4.82;;;;;14.90;100016.00;;;;5078010;28;20206;-77
2021/04/29 02:53:11;;;;;;;6.68;4.40;;;;;14.90;100028.00;;;;5067708;28;20218;-78
2021/04/29 02:55:38;;;;;;;5.90;4.03;;;;;15.00;100030.00;;;;5068198;28;20206;-77
2021/04/29 02:58:07;;;;;;;7.55;5.22;;;;;15.00;100033.00;;;;5073276;28;20206;-78
2021/04/29 03:00:35;;;;;;;5.65;4.35;;;;;15.00;100031.00;;;;5086858;28;20694;-78
2021/04/29 03:03:02;;;;;;;7.22;4.75;;;;;15.00;100021.00;;;;5079492;28;20207;-78
2021/04/29 03:05:28;;;;;;;5.97;4.75;;;;;15.00;100013.00;;;;5086711;28;20229;-78
2021/04/29 03:07:56;;;;;;;5.78;4.60;;;;;15.00;100020.00;;;;5087860;28;20288;-78
2021/04/29 03:10:24;;;;;;;7.15;5.13;;;;;15.00;100032.00;;;;5086605;28;20209;-77
2021/04/29 03:12:50;;;;;;;6.07;4.35;;;;;15.10;100030.00;;;;5068155;28;20201;-78
2021/04/29 03:15:18;;;;;;;6.45;4.70;;;;;15.10;100033.00;;;;5067166;28;20195;-77
2021/04/29 03:17:44;;;;;;;5.78;3.88;;;;;15.10;100018.00;;;;5069590;28;20213;-78
2021/04/29 03:20:12;;;;;;;5.22;4.00;;;;;15.10;100015.00;;;;5067534;28;20191;-78
2021/04/29 03:22:38;;;;;;;5.95;3.28;;;;;15.10;100004.00;;;;5086488;28;20676;-77
2021/04/29 03:25:07;;;;;;;6.38;3.88;;;;;15.10;100015.00;;;;5076910;28;20218;-78
2021/04/29 03:27:34;;;;;;;4.82;4.13;;;;;15.10;100014.00;;;;5087867;28;20248;-78
2021/04/29 03:30:00;;;;;;;5.07;4.22;;;;;15.20;100016.00;;;;5071610;28;20199;-78
2021/04/29 03:32:27;;;;;;;6.10;4.25;;;;;15.20;100021.00;;;;5086472;28;20210;-78
2021/04/29 03:34:54;;;;;;;5.50;3.85;;;;;15.10;100025.00;;;;5073285;28;20236;-78
2021/04/29 03:37:21;;;;;;;6.13;4.10;;;;;15.20;100027.00;;;;5073959;28;20608;-78
2021/04/29 03:39:47;;;;;;;5.07;3.80;;;;;15.20;100031.00;;;;5071665;28;20199;-78
2021/04/29 03:42:16;;;;;;;6.72;4.13;;;;;15.20;100018.00;;;;5071384;28;20195;-78
2021/04/29 03:44:43;;;;;;;5.55;4.35;;;;;15.10;100023.00;;;;5082854;28;20313;-78
2021/04/29 03:47:10;;;;;;;5.68;4.47;;;;;15.10;100022.00;;;;5091719;28;20206;-78
2021/04/29 03:49:36;;;;;;;5.93;4.47;;;;;15.10;100006.00;;;;5072167;28;20210;-78
2021/04/29 03:52:03;;;;;;;5.65;4.63;;;;;15.10;100008.00;;;;5074555;28;20210;-78
2021/04/29 03:54:30;;;;;;;5.50;4.45;;;;;15.10;100001.00;;;;5082200;28;20236;-78
2021/04/29 03:56:57;;;;;;;5.90;4.82;;;;;15.00;100000.00;;;;5070380;28;20198;-76
2021/04/29 03:59:25;;;;;;;7.40;4.68;;;;;15.00;99981.00;;;;5070928;28;20198;-76
2021/04/29 04:01:52;;;;;;;6.38;4.70;;;;;15.00;99986.00;;;;5071166;28;20248;-75
2021/04/29 04:04:18;;;;;;;8.00;4.80;;;;;15.00;99986.00;;;;5078978;28;20209;-75
2021/04/29 04:06:45;;;;;;;7.05;5.15;;;;;14.90;99990.00;;;;5070661;28;20583;-75
2021/04/29 04:09:12;;;;;;;7.03;5.50;;;;;14.90;99995.00;;;;5086433;28;20209;-74
2021/04/29 04:11:39;;;;;;;7.40;5.22;;;;;14.80;99984.00;;;;5090065;28;20202;-74
2021/04/29 04:14:05;;;;;;;6.57;4.97;;;;;14.80;99976.00;;;;5084208;28;20682;-75
2021/04/29 04:16:33;;;;;;;7.32;5.10;;;;;14.80;99962.00;;;;5080424;28;20191;-75
2021/04/29 04:19:00;;;;;;;7.20;5.72;;;;;14.70;99960.00;;;;5069061;28;20202;-75
2021/04/29 04:21:27;;;;;;;5.25;4.60;;;;;14.70;99965.00;;;;5070353;28;20203;-76
2021/04/29 04:23:55;;;;;;;6.82;5.22;;;;;14.70;99970.00;;;;5070534;28;20214;-76
2021/04/29 04:26:22;;;;;;;7.35;5.55;;;;;14.70;99973.00;;;;5069645;28;20317;-76
2021/04/29 04:28:49;;;;;;;7.15;5.20;;;;;14.70;99979.00;;;;5073941;28;20226;-76
2021/04/29 04:31:16;;;;;;;8.35;5.03;;;;;14.60;99982.00;;;;5083567;28;20206;-76
2021/04/29 04:33:43;;;;;;;6.63;5.10;;;;;14.60;99985.00;;;;5082062;28;20230;-76
2021/04/29 04:36:10;;;;;;;9.43;5.32;;;;;14.60;99977.00;;;;5070519;28;20209;-76
2021/04/29 04:38:37;;;;;;;8.63;5.35;;;;;14.60;99967.00;;;;5069423;28;20218;-76
2021/04/29 04:41:04;;;;;;;7.07;4.70;;;;;14.60;99975.00;;;;5070493;28;20206;-77
2021/04/29 04:43:31;;;;;;;6.47;5.25;;;;;14.60;99981.00;;;;5070139;28;20226;-76
2021/04/29 04:45:57;;;;;;;6.80;4.72;;;;;14.60;99985.00;;;;5072785;28;20222;-77
2021/04/29 04:48:24;;;;;;;7.25;5.57;;;;;14.60;100000.00;;;;5070179;28;20673;-76
2021/04/29 04:50:52;;;;;;;7.75;5.78;;;;;14.60;100001.00;;;;5069780;28;20210;-76
2021/04/29 04:53:19;;;;;;;6.38;4.72;;;;;14.60;100002.00;;;;5070103;28;20203;-76
2021/04/29 04:55:47;;;;;;;8.27;5.40;;;;;14.60;100002.00;;;;5072434;28;20723;-76
2021/04/29 04:58:15;;;;;;;8.15;5.10;;;;;14.60;99994.00;;;;5073065;28;20191;-76
2021/04/29 05:00:41;;;;;;;7.10;5.35;;;;;14.60;99990.00;;;;5073820;28;20202;-76
2021/04/29 05:03:09;;;;;;;8.13;5.57;;;;;14.60;99993.00;;;;5087998;28;20228;-76
2021/04/29 05:05:35;;;;;;;7.07;4.97;;;;;14.70;99999.00;;;;5088254;28;20275;-76
2021/04/29 05:08:03;;;;;;;10.95;5.88;;;;;14.70;100007.00;;;;5068772;28;20206;-76
2021/04/29 05:10:31;;;;;;;7.43;5.93;;;;;14.70;100005.00;;;;5068720;28;20541;-77
2021/04/29 05:13:00;;;;;;;8.60;5.40;;;;;14.70;100001.00;;;;5069261;28;21056;-77
2021/04/29 05:15:27;;;;;;;7.28;4.90;;;;;14.70;100017.00;;;;5069480;28;20207;-77
2021/04/29 05:17:53;;;;;;;6.95;4.95;;;;;14.70;100015.00;;;;5069310;28;20240;-77
2021/04/29 05:20:20;;;;;;;7.53;5.47;;;;;14.80;100024.00;;;;5067195;28;20203;-77
2021/04/29 05:22:47;;;;;;;7.95;5.32;;;;;14.80;100025.00;;;;5071529;28;20199;-77
2021/04/29 05:25:15;;;;;;;8.52;6.18;;;;;14.80;100018.00;;;;5069519;28;20238;-77
2021/04/29 05:27:42;;;;;;;6.57;5.40;;;;;14.80;100025.00;;;;5069754;28;20191;-78
2021/04/29 05:30:09;;;;;;;8.00;6.00;;;;;14.80;100025.00;;;;5077485;28;20649;-77
2021/04/29 05:32:36;;;;;;;6.10;5.10;;;;;14.90;100031.00;;;;5078076;28;20203;-77
2021/04/29 05:35:04;;;;;;;6.43;4.68;;;;;14.90;100034.00;;;;5076489;28;20243;-78
2021/04/29 05:37:31;;;;;;;11.93;7.13;;;;;14.90;100024.00;;;;5078427;28;20199;-77
2021/04/29 05:39:57;;;;;;;6.57;5.22;;;;;14.90;100021.00;;;;5069708;28;20728;-78
2021/04/29 05:42:25;;;;;;;7.28;5.20;;;;;14.90;100021.00;;;;5085371;28;20202;-77
2021/04/29 05:44:52;;;;;;;9.38;5.68;;;;;14.90;100015.00;;;;5075674;28;20718;-75
2021/04/29 05:47:18;;;;;;;6.85;5.22;;;;;14.90;100010.00;;;;5068836;28;20202;-75
2021/04/29 05:49:45;;;;;;;8.18;6.00;;;;;14.90;100008.00;;;;5068945;28;20195;-75
2021/04/29 05:52:12;;;;;;;7.95;6.07;;;;;14.90;100010.00;;;;5078614;28;20198;-78
2021/04/29 05:54:39;;;;;;;6.90;5.28;;;;;14.90;100013.00;;;;5083385;28;20214;-79
2021/04/29 05:57:06;;;;;;;8.13;5.32;;;;;15.00;100012.00;;;;5069656;28;20202;-78
2021/04/29 05:59:34;;;;;;;7.65;5.43;;;;;15.00;100017.00;;;;5071381;28;20194;-77
2021/04/29 06:02:01;;;;;;;8.02;5.50;;;;;15.00;100020.00;;;;5080822;28;20198;-78
2021/04/29 06:04:28;;;;;;;7.93;5.30;;;;;15.00;100018.00;;;;5069042;28;20233;-79
2021/04/29 06:06:55;;;;;;;7.20;5.43;;;;;15.00;100014.00;;;;5068703;28;20199;-77
2021/04/29 06:09:22;;;;;;;8.95;6.18;;;;;15.00;100008.00;;;;5074917;28;20295;-77
2021/04/29 06:11:49;;;;;;;8.75;5.63;;;;;15.00;100011.00;;;;5072448;28;20206;-76
2021/04/29 06:14:15;;;;;;;7.40;5.32;;;;;15.00;100005.00;;;;5063532;28;20198;-76
2021/04/29 06:16:43;;;;;;;7.55;5.47;;;;;15.00;100014.00;;;;5070120;28;20195;-79
2021/04/29 06:19:11;;;;;;;5.90;5.03;;;;;15.10;100014.00;;;;5075778;28;20283;-79
2021/04/29 06:21:38;;;;;;;7.30;5.40;;;;;15.10;100021.00;;;;5069098;28;20206;-79
2021/04/29 06:24:06;;;;;;;7.20;5.50;;;;;15.10;100020.00;;;;5068173;28;20210;-79
2021/04/29 06:26:32;;;;;;;7.38;5.80;;;;;15.10;100025.00;;;;5068519;28;20284;-79
2021/04/29 06:28:59;;;;;;;7.68;4.88;;;;;15.10;100024.00;;;;5069179;28;20214;-78
2021/04/29 06:31:26;;;;;;;7.57;4.93;;;;;15.10;100027.00;;;;5073796;28;20190;-78
2021/04/29 06:33:53;;;;;;;5.88;4.70;;;;;15.10;100023.00;;;;5085050;28;20205;-78
2021/04/29 06:36:20;;;;;;;5.97;5.03;;;;;15.10;100019.00;;;;5088712;28;20202;-78
2021/04/29 06:38:47;;;;;;;7.20;5.53;;;;;15.10;100017.00;;;;5087683;28;20202;-78
2021/04/29 06:41:14;;;;;;;6.75;5.15;;;;;15.10;100016.00;;;;5086604;28;20450;-78
2021/04/29 06:43:40;;;;;;;6.13;4.47;;;;;15.10;100023.00;;;;5086804;28;20257;-78
2021/04/29 06:46:09;;;;;;;6.05;4.65;;;;;15.10;100018.00;;;;5085513;28;20222;-78
2021/04/29 06:48:36;;;;;;;6.60;5.20;;;;;15.10;100026.00;;;;5086604;28;20513;-78
2021/04/29 06:51:04;;;;;;;6.57;4.70;;;;;15.10;100021.00;;;;5086151;28;20202;-79
2021/04/29 06:53:31;;;;;;;6.65;5.25;;;;;15.10;100023.00;;;;5083665;28;20195;-78
2021/04/29 06:55:57;;;;;;;8.27;4.45;;;;;15.10;100020.00;;;;5083093;28;20251;-78
2021/04/29 06:58:25;;;;;;;7.88;5.25;;;;;15.10;100023.00;;;;5075020;28;20203;-80
2021/04/29 07:00:51;;;;;;;6.28;4.72;;;;;15.10;100021.00;;;;5085705;28;20660;-79
2021/04/29 07:03:18;;;;;;;6.43;4.82;;;;;15.10;100020.00;;;;5074020;28;20199;-80
2021/04/29 07:05:45;;;;;;;6.93;4.85;;;;;15.10;100023.00;;;;5071683;28;20226;-80
2021/04/29 07:08:14;;;;;;;6.55;5.18;;;;;15.20;100031.00;;;;5077561;28;20297;-81
2021/04/29 07:10:40;;;;;;;8.63;4.97;;;;;15.20;100038.00;;;;5072432;28;20214;-80
2021/04/29 07:13:07;;;;;;;8.15;6.05;;;;;15.20;100035.00;;;;5073548;28;20579;-82
2021/04/29 07:15:35;;;;;;;8.02;4.78;;;;;15.20;100034.00;;;;5072221;28;20195;-81
2021/04/29 07:18:04;;;;;;;5.25;4.70;;;;;15.10;100039.00;;;;5071488;28;20194;-82
2021/04/29 07:20:33;;;;;;;7.28;6.00;;;;;15.10;100028.00;;;;5071478;28;20195;-80
2021/04/29 07:23:00;;;;;;;6.47;4.32;;;;;15.10;100048.00;;;;5071341;28;20284;-81
2021/04/29 07:25:28;;;;;;;7.18;4.30;;;;;15.10;100044.00;;;;5068598;28;20761;-81
2021/04/29 07:27:54;;;;;;;5.72;4.35;;;;;15.10;100052.00;;;;5071920;28;20209;-82
2021/04/29 07:30:21;;;;;;;5.25;3.95;;;;;15.10;100050.00;;;;5071926;28;20206;-81
2021/04/29 07:32:48;;;;;;;7.35;4.68;;;;;15.10;100060.00;;;;5074145;28;20207;-82
2021/04/29 07:35:15;;;;;;;5.40;4.13;;;;;15.10;100064.00;;;;5070617;28;20195;-81
2021/04/29 07:37:42;;;;;;;5.85;4.60;;;;;15.10;100076.00;;;;5070300;28;20673;-81
2021/04/29 07:40:10;;;;;;;6.93;4.53;;;;;15.10;100073.00;;;;5069878;28;20206;-82
2021/04/29 07:42:37;;;;;;;6.65;3.88;;;;;15.10;100073.00;;;;5070107;28;20640;-81
2021/04/29 07:45:05;;;;;;;4.55;3.90;;;;;15.10;100068.00;;;;5066915;28;20588;-81
2021/04/29 07:47:32;;;;;;;5.90;4.30;;;;;15.10;100079.00;;;;5069151;28;20221;-81
2021/04/29 07:49:59;;;;;;;6.70;4.63;;;;;15.10;100086.00;;;;5070994;28;20210;-82
2021/04/29 07:52:25;;;;;;;5.97;4.72;;;;;15.10;100089.00;;;;5070093;28;20616;-81
2021/04/29 07:54:52;;;;;;;4.30;3.65;;;;;15.20;100088.00;;;;5067062;28;20207;-81
2021/04/29 07:57:20;;;;;;;5.35;3.97;;;;;15.10;100091.00;;;;5074933;28;20565;-81
2021/04/29 07:59:47;;;;;;;6.45;4.00;;;;;15.10;100095.00;;;;5074104;28;20705;-82
2021/04/29 08:02:14;;;;;;;5.40;3.92;;;;;15.20;100091.00;;;;5070717;28;20190;-81
2021/04/29 08:04:41;;;;;;;5.85;4.95;;;;;15.20;100091.00;;;;5071026;28;20248;-81
2021/04/29 08:07:08;;;;;;;5.95;4.45;;;;;15.20;100088.00;;;;5070065;28;20268;-81
2021/04/29 08:09:34;;;;;;;5.80;4.60;;;;;15.20;100095.00;;;;5071710;28;20207;-81
2021/04/29 08:12:01;;;;;;;5.82;4.65;;;;;15.20;100097.00;;;;5074611;28;20257;-81
2021/04/29 08:14:28;;;;;;;6.47;4.25;;;;;15.20;100095.00;;;;5075270;28;20612;-82
2021/04/29 08:16:55;;;;;;;6.13;4.05;;;;;15.20;100092.00;;;;5075869;28;21243;-81
2021/04/29 08:19:22;;;;;;;5.90;4.10;;;;;15.20;100106.00;;;;5081636;28;20194;-81
2021/04/29 08:21:49;;;;;;;8.95;5.05;;;;;15.20;100095.00;;;;5090364;28;20205;-81
2021/04/29 08:24:16;;;;;;;5.18;4.13;;;;;15.20;100103.00;;;;5076599;28;20211;-81
2021/04/29 08:26:42;;;;;;;8.07;4.28;;;;;15.20;100109.00;;;;5075484;28;20218;-81
2021/04/29 08:29:09;;;;;;;8.90;5.00;;;;;15.20;100108.00;;;;5085621;28;20194;-81
2021/04/29 08:31:38;;;;;;;5.38;4.32;;;;;15.20;100114.00;;;;5079682;28;20190;-81
2021/04/29 08:34:06;;;;;;;9.30;5.00;;;;;15.20;100115.00;;;;5085801;28;20297;-79
2021/04/29 08:36:33;;;;;;;5.50;4.00;;;;;15.30;100112.00;;;;5077373;28;20203;-80
2021/04/29 08:39:02;;;;;;;5.43;4.18;;;;;15.30;100115.00;;;;5091374;28;20201;-80
2021/04/29 08:41:29;;;;;;;8.38;4.55;;;;;15.30;100115.00;;;;5087055;28;20665;-80
2021/04/29 08:43:56;;;;;;;6.22;4.75;;;;;15.30;100114.00;;;;5080739;28;20226;-80
2021/04/29 08:46:23;;;;;;;6.97;5.22;;;;;15.30;100121.00;;;;5070174;28;20215;-80
2021/04/29 08:48:53;;;;;;;8.35;4.97;;;;;15.30;100122.00;;;;5072991;28;20257;-80
2021/04/29 08:51:22;;;;;;;6.47;4.93;;;;;15.30;100125.00;;;;5086381;28;20198;-80
2021/04/29 08:53:49;;;;;;;6.28;3.90;;;;;15.20;100124.00;;;;5071338;28;20210;-82
2021/04/29 08:56:22;;;;;;;7.97;4.85;;;;;15.20;100128.00;;;;5087108;28;20213;-82
2021/04/29 08:58:49;;;;;;;5.88;4.18;;;;;15.20;100121.00;;;;5084710;28;20228;-82
2021/04/29 09:01:16;;;;;;;7.60;4.75;;;;;15.20;100125.00;;;;5077040;28;20210;-82
2021/04/29 09:03:44;;;;;;;5.10;4.25;;;;;15.20;100125.00;;;;5082463;28;20206;-80
2021/04/29 09:06:11;;;;;;;5.85;4.53;;;;;15.20;100128.00;;;;5088252;28;20590;-80
2021/04/29 09:08:41;;;;;;;7.32;4.88;;;;;15.20;100135.00;;;;5074008;28;20223;-80
2021/04/29 09:11:14;;;;;;;6.75;4.13;;;;;15.10;100132.00;;;;5076841;28;20209;-80
2021/04/29 09:13:42;;;;;;;7.80;4.38;;;;;15.20;100139.00;;;;5088084;28;20191;-81
2021/04/29 09:16:12;;;;;;;6.20;4.63;;;;;15.20;100151.00;;;;5070259;28;20214;-81
2021/04/29 09:18:41;;;;;;;6.47;4.60;;;;;15.20;100142.00;;;;5069775;28;20249;-81
2021/04/29 09:21:12;;;;;;;6.65;4.57;;;;;15.10;100147.00;;;;5070987;28;20198;-82
2021/04/29 09:23:41;;;;;;;6.05;4.35;;;;;15.10;100146.00;;;;5068538;28;20203;-81
2021/04/29 09:26:09;;;;;;;6.00;4.65;;;;;15.10;100150.00;;;;5068577;28;20229;-82
2021/04/29 09:28:38;;;;;;;5.85;4.80;;;;;15.10;100157.00;;;;5072715;28;20668;-81
2021/04/29 09:31:07;;;;;;;5.70;5.15;;;;;15.10;100162.00;;;;5083939;28;20255;-81
2021/04/29 09:33:35;;;;;;;8.13;5.45;;;;;15.10;100160.00;;;;5069781;28;20194;-81
2021/04/29 09:36:02;;;;;;;6.95;4.35;;;;;15.10;100166.00;;;;5078801;28;20214;-81
2021/04/29 09:38:34;;;;;;;6.03;4.68;;;;;15.00;100160.00;;;;5075841;28;20210;-79
2021/04/29 09:41:02;;;;;;;7.80;4.63;;;;;15.00;100171.00;;;;5069041;28;20199;-77
2021/04/29 09:43:29;;;;;;;5.28;4.28;;;;;15.00;100168.00;;;;5072374;28;20226;-76
2021/04/29 09:45:58;;;;;;;5.22;4.38;;;;;14.90;100174.00;;;;5072319;28;20214;-76
2021/04/29 09:48:34;;;;;;;7.95;5.15;;;;;14.90;100186.00;;;;5078949;28;20672;-77
2021/04/29 09:51:02;;;;;;;5.18;3.92;;;;;15.00;100189.00;;;;5081090;28;20661;-77
2021/04/29 09:53:39;;;;;;;5.63;4.45;;;;;14.90;100197.00;;;;5079922;28;20691;-76
2021/04/29 09:56:12;;;;;;;9.43;4.82;;;;;14.90;100200.00;;;;5077860;28;20205;-77
2021/04/29 09:58:44;;;;;;;7.03;5.30;;;;;14.90;100203.00;;;;5085361;28;20210;-77
2021/04/29 10:01:12;;;;;;;5.97;4.65;;;;;14.80;100205.00;;;;5088097;28;20671;-77
2021/04/29 10:03:40;;;;;;;5.60;4.63;;;;;14.80;100203.00;;;;5088695;28;20233;-77
2021/04/29 10:06:10;;;;;;;6.43;4.50;;;;;14.80;100216.00;;;;5088519;28;20584;-77
2021/04/29 10:08:37;;;;;;;6.80;5.15;;;;;14.70;100218.00;;;;5085612;28;20218;-77
2021/04/29 10:11:04;;;;;;;4.90;4.38;;;;;14.70;100215.00;;;;5068259;28;20286;-78
2021/04/29 10:13:36;;;;;;;9.32;5.18;;;;;14.60;100221.00;;;;5071153;28;20219;-78
2021/04/29 10:16:03;;;;;;;7.50;5.40;;;;;14.60;100223.00;;;;5083387;28;20661;-79
2021/04/29 10:18:30;;;;;;;6.70;4.63;;;;;14.60;100219.00;;;;5082050;28;20191;-80
2021/04/29 10:21:00;;;;;;;6.00;4.50;;;;;14.50;100226.00;;;;5073570;28;20198;-79
2021/04/29 10:23:27;;;;;;;7.82;4.72;;;;;14.50;100224.00;;;;5068586;28;20191;-79
2021/04/29 10:25:55;;;;;;;5.72;4.20;;;;;14.50;100229.00;;;;5068909;28;20230;-80
2021/04/29 10:28:37;;;;;;;6.30;4.88;;;;;14.40;100230.00;;;;5071059;28;20673;-77
2021/04/29 10:31:18;;;;;;;5.65;4.57;;;;;14.30;100234.00;;;;5071544;28;20198;-78
2021/04/29 10:33:50;;;;;;;5.90;4.43;;;;;14.40;100236.00;;;;5068749;28;20236;-81
2021/04/29 10:36:17;;;;;;;5.45;4.30;;;;;14.40;100242.00;;;;5068508;28;20679;-80
2021/04/29 10:38:44;;;;;;;6.80;5.28;;;;;14.30;100240.00;;;;5079599;28;20192;-79
2021/04/29 10:41:23;;;;;;;8.18;4.88;;;;;14.20;100249.00;;;;5071015;28;20195;-79
2021/04/29 10:43:52;;;;;;;7.70;4.97;;;;;14.20;100251.00;;;;5082261;28;20272;-78
2021/04/29 10:46:28;;;;;;;5.90;4.63;;;;;14.10;100256.00;;;;5087034;28;20221;-79
2021/04/29 10:48:56;;;;;;;6.13;4.55;;;;;14.20;100254.00;;;;5076141;28;20202;-78
2021/04/29 10:51:31;;;;;;;11.20;5.75;;;;;14.10;100264.00;;;;5067897;28;20199;-79
2021/04/29 10:54:12;;;;;;;6.75;5.28;;;;;14.00;100258.00;;;;5073343;28;20603;-79
2021/04/29 10:56:40;;;;;;;6.60;5.05;;;;;14.00;100269.00;;;;5068247;28;20296;-80
2021/04/29 10:59:15;;;;;;;5.88;4.35;;;;;13.90;100265.00;;;;5067209;28;20202;-80
2021/04/29 11:01:43;;;;;;;6.43;4.93;;;;;13.90;100268.00;;;;5076264;28;20189;-80
2021/04/29 11:04:22;;;;;;;9.80;5.40;;;;;13.80;100275.00;;;;5078768;28;20198;-80
2021/04/29 11:06:49;;;;;;;7.13;5.13;;;;;13.90;100283.00;;;;5086438;28;20225;-80
2021/04/29 11:09:19;;;;;;;6.53;5.53;;;;;13.90;100283.00;;;;5077223;28;20218;-80
2021/04/29 11:11:46;;;;;;;5.68;4.63;;;;;13.80;100289.00;;;;5076824;28;20307;-81
2021/04/29 11:14:15;;;;;;;7.10;5.57;;;;;13.80;100290.00;;;;5086257;28;20202;-80
2021/04/29 11:16:48;;;;;;;6.50;5.05;;;;;13.80;100301.00;;;;5087108;28;20301;-81
2021/04/29 11:19:41;;;;;;;8.60;6.82;;;;;13.70;100307.00;;;;5087845;28;20249;-80
2021/04/29 11:22:09;;;;;;;8.20;6.00;;;;;13.70;100309.00;;;;5071870;28;20195;-79
2021/04/29 11:24:39;;;;;;;6.88;4.97;;;;;13.60;100315.00;;;;5071334;28;20187;-78
2021/04/29 11:27:16;;;;;;;7.63;5.63;;;;;13.60;100326.00;;;;5067689;28;20222;-80
2021/04/29 11:29:44;;;;;;;7.88;5.80;;;;;13.60;100324.00;;;;5070571;28;20207;-80
2021/04/29 11:32:11;;;;;;;9.80;6.60;;;;;13.60;100330.00;;;;5074317;28;20225;-77
2021/04/29 11:34:42;;;;;;;8.18;4.97;;;;;13.50;100337.00;;;;5079528;28;20573;-77
2021/04/29 11:37:09;;;;;;;6.10;4.80;;;;;13.50;100330.00;;;;5075692;28;20191;-77
2021/04/29 11:39:36;;;;;;;6.72;4.90;;;;;13.50;100347.00;;;;5082243;28;20187;-76
2021/04/29 11:42:03;;;;;;;6.20;4.53;;;;;13.50;100339.00;;;;5067534;28;20210;-77
2021/04/29 11:44:30;;;;;;;5.75;4.78;;;;;13.50;100347.00;;;;5074893;28;20291;-77
2021/04/29 11:47:01;;;;;;;8.55;4.65;;;;;13.40;100340.00;;;;5075156;28;20226;-77
2021/04/29 11:49:36;;;;;;;5.75;4.57;;;;;13.50;100351.00;;;;5072023;28;20252;-78
2021/04/29 11:52:03;;;;;;;5.25;4.43;;;;;13.50;100350.00;;;;5081982;28;20217;-77
2021/04/29 11:54:31;;;;;;;4.55;3.85;;;;;13.50;100354.00;;;;5081823;28;20195;-77
2021/04/29 11:57:01;;;;;;;4.03;3.25;;;;;13.50;100361.00;;;;5076876;28;20284;-78
2021/04/29 11:59:31;;;;;;;4.60;3.95;;;;;13.50;100360.00;;;;5075680;28;20203;-77
2021/04/29 12:01:59;;;;;;;4.50;3.63;;;;;13.50;100368.00;;;;5070577;28;20771;-78
2021/04/29 12:04:27;;;;;;;6.93;4.07;;;;;13.60;100366.00;;;;5070161;28;20639;-78
2021/04/29 12:06:56;;;;;;;4.63;3.80;;;;;13.60;100376.00;;;;5071497;28;20652;-78
2021/04/29 12:09:24;;;;;;;4.28;3.67;;;;;13.70;100372.00;;;;5076428;28;20783;-78
2021/04/29 12:11:51;;;;;;;4.75;3.53;;;;;13.80;100382.00;;;;5073651;28;20297;-78
2021/04/29 12:14:22;;;;;;;5.70;4.13;;;;;13.90;100376.00;;;;5073708;28;20229;-78
2021/04/29 12:16:50;;;;;;;5.10;4.18;;;;;14.00;100376.00;;;;5080830;28;20198;-78
2021/04/29 12:19:24;;;;;;;4.85;3.95;;;;;14.00;100393.00;;;;5079940;28;20205;-78